Time;durP1;ratioP1;P1;durP2;ratioP2;P2;SDS_P1;SDS_P2;PMS_P1;PMS_P2;Temp;Humidity;BMP_temperature;BMP_pressure;BME280_temperature;BME280_humidity;BME280_pressure;Samples;Min_cycle;Max_cycle;Signal;HPM_P1;HPM_P2
2022/01/28 00:01:56;;;;;;;7.15;2.30;;;;;;;9.29;61.21;102852.09;5074928;28;20036;-63
2022/01/28 00:04:23;;;;;;;18.50;2.55;;;;;;;9.28;61.18;102854.81;5075184;28;20113;-64
2022/01/28 00:06:50;;;;;;;20.27;3.53;;;;;;;9.27;61.24;102855.75;5075381;28;20041;-63
2022/01/28 00:09:16;;;;;;;13.05;2.80;;;;;;;9.24;61.20;102857.59;5075304;28;20090;-63
2022/01/28 00:11:43;;;;;;;10.50;2.90;;;;;;;9.23;61.21;102861.22;5073378;28;20065;-63
2022/01/28 00:14:29;;;;;;;14.82;3.58;;;;;;;9.21;61.01;102859.50;5074962;28;20163;-63
2022/01/28 00:38:37;;;;;;;14.50;2.60;;;;;;;8.94;60.77;102866.66;5052579;28;20095;-63
2022/01/28 00:41:04;;;;;;;9.32;2.22;;;;;;;8.91;60.79;102864.03;5052677;28;20037;-63
2022/01/28 00:43:31;;;;;;;12.80;2.17;;;;;;;8.89;60.81;102874.81;5052736;28;20037;-62
2022/01/28 00:45:58;;;;;;;6.72;2.58;;;;;;;8.88;60.67;102883.75;5051356;28;20072;-63
2022/01/28 00:48:24;;;;;;;9.02;2.40;;;;;;;8.85;60.73;102867.78;5052353;28;20072;-63
2022/01/28 00:50:51;;;;;;;14.32;2.80;;;;;;;8.85;60.70;102874.94;5052221;28;20067;-63
2022/01/28 00:53:22;;;;;;;13.38;2.80;;;;;;;8.81;60.60;102868.81;5052750;28;20495;-63
2022/01/28 00:55:49;;;;;;;15.50;2.47;;;;;;;8.79;60.61;102883.19;5070182;28;20045;-63
2022/01/28 00:58:16;;;;;;;14.57;3.13;;;;;;;8.76;60.65;102873.44;5072164;28;20524;-63
2022/01/28 01:00:42;;;;;;;8.85;1.90;;;;;;;8.74;60.66;102871.72;5072364;28;20486;-63
2022/01/28 01:03:10;;;;;;;16.55;2.63;;;;;;;8.72;60.63;102874.47;5072656;28;20049;-63
2022/01/28 01:05:37;;;;;;;6.78;2.42;;;;;;;8.71;60.61;102874.50;5072455;28;20127;-63
2022/01/28 01:08:05;;;;;;;11.85;2.30;;;;;;;8.70;60.30;102878.97;5072313;28;20079;-63
2022/01/28 01:10:33;;;;;;;11.52;2.30;;;;;;;8.71;60.70;102879.84;5072391;28;20036;-62
2022/01/28 01:13:01;;;;;;;13.27;2.85;;;;;;;8.70;60.53;102897.72;5071934;28;20116;-63
2022/01/28 01:15:34;;;;;;;12.95;2.97;;;;;;;8.70;60.40;102908.44;5072112;28;20084;-63
2022/01/28 01:18:09;;;;;;;11.13;2.28;;;;;;;8.67;60.74;102900.50;5071891;28;20120;-64
2022/01/28 01:23:32;;;;;;;15.73;2.38;;;;;;;8.65;60.72;102907.72;5072193;28;20074;-64
2022/01/28 01:26:08;;;;;;;8.68;2.50;;;;;;;8.66;60.66;102906.78;5071979;28;20143;-63
2022/01/28 01:28:38;;;;;;;12.23;2.83;;;;;;;8.66;60.64;102912.16;5063599;28;20045;-64
2022/01/28 01:31:08;;;;;;;10.23;3.05;;;;;;;8.66;60.82;102911.25;5052381;28;20041;-63
2022/01/28 01:33:41;;;;;;;13.10;2.58;;;;;;;8.67;60.59;102929.09;5016155;28;1047913;-63
2022/01/28 01:36:08;;;;;;;9.85;2.25;;;;;;;8.66;60.47;102920.19;5052651;28;20494;-63
2022/01/28 01:38:37;;;;;;;18.13;2.60;;;;;;;8.65;60.69;102934.50;5052553;28;20140;-63
2022/01/28 01:41:09;;;;;;;12.18;3.25;;;;;;;8.64;60.57;102930.06;5052637;28;20116;-63
2022/01/28 01:44:05;;;;;;;9.95;2.50;;;;;;;8.62;60.40;102929.22;5052932;28;20041;-63
2022/01/28 01:52:02;;;;;;;11.70;2.13;;;;;;;8.59;60.55;102937.34;5052514;28;20127;-63
2022/01/28 01:54:42;;;;;;;11.80;2.75;;;;;;;8.57;60.74;102947.22;5052602;28;20572;-63
2022/01/28 01:57:12;;;;;;;13.15;2.55;;;;;;;8.59;60.78;102965.03;5052328;28;20088;-63
2022/01/28 01:59:41;;;;;;;12.25;2.58;;;;;;;8.62;60.79;102964.06;5052279;28;20186;-63
2022/01/28 02:02:09;;;;;;;9.27;2.47;;;;;;;8.63;60.83;102964.94;5055523;28;20131;-63
2022/01/28 02:04:39;;;;;;;16.85;2.83;;;;;;;8.65;60.90;102966.63;5071982;28;20051;-63
2022/01/28 02:07:06;;;;;;;14.00;2.83;;;;;;;8.66;60.76;102973.75;5071710;28;20056;-63
2022/01/28 02:09:33;;;;;;;12.23;2.33;;;;;;;8.66;60.81;102976.44;5071923;28;20040;-64
2022/01/28 02:12:00;;;;;;;15.68;2.72;;;;;;;8.66;60.72;102981.78;5071490;28;20041;-63
2022/01/28 02:14:26;;;;;;;18.15;2.53;;;;;;;8.65;60.81;102984.50;5072246;28;20068;-63
2022/01/28 02:16:53;;;;;;;7.70;2.28;;;;;;;8.65;60.75;102984.50;5067802;28;20099;-62
2022/01/28 02:19:20;;;;;;;12.23;2.42;;;;;;;8.65;60.89;102989.88;5050757;28;20510;-63
2022/01/28 02:21:50;;;;;;;18.20;3.05;;;;;;;8.66;60.66;102995.19;5052208;28;20325;-63
2022/01/28 02:24:25;;;;;;;9.88;2.38;;;;;;;8.67;60.58;102993.38;5051643;28;20441;-63
2022/01/28 02:26:52;;;;;;;9.13;1.95;;;;;;;8.65;60.65;102990.75;5052060;28;20069;-63
2022/01/28 02:29:28;;;;;;;14.57;3.22;;;;;;;8.66;60.80;102987.16;5051761;28;20099;-62
2022/01/28 02:31:55;;;;;;;11.88;2.40;;;;;;;8.65;60.67;102980.03;5052072;28;20068;-63
2022/01/28 02:34:22;;;;;;;11.65;2.13;;;;;;;8.66;60.68;102987.16;5051605;28;20045;-63
2022/01/28 02:36:49;;;;;;;13.02;2.78;;;;;;;8.66;60.62;102992.50;5062155;28;20072;-62
2022/01/28 02:39:15;;;;;;;11.15;2.70;;;;;;;8.68;60.63;102993.34;5071343;28;20102;-63
2022/01/28 02:41:46;;;;;;;10.20;2.78;;;;;;;8.67;60.77;102991.56;5071676;28;20422;-63
2022/01/28 02:44:40;;;;;;;11.27;2.15;;;;;;;8.69;60.33;103000.44;5063358;28;20115;-63
2022/01/28 02:47:12;;;;;;;10.90;2.45;;;;;;;8.68;60.51;103000.50;5051530;28;20495;-63
2022/01/28 02:49:38;;;;;;;10.95;2.67;;;;;;;8.66;60.49;103003.22;5051290;28;20045;-63
2022/01/28 02:52:06;;;;;;;11.63;2.58;;;;;;;8.66;60.62;103013.06;5051184;28;20041;-62
2022/01/28 02:54:44;;;;;;;12.38;2.03;;;;;;;8.64;60.51;103013.09;5067271;28;20044;-63
2022/01/28 02:57:11;;;;;;;13.18;2.53;;;;;;;8.63;60.59;103022.06;5071162;28;20052;-62
2022/01/28 02:59:37;;;;;;;15.02;2.47;;;;;;;8.64;60.52;103017.56;5071187;28;20440;-61
2022/01/28 03:02:04;;;;;;;12.85;2.50;;;;;;;8.63;60.57;103016.69;5071153;28;20044;-61
2022/01/28 03:06:59;;;;;;;13.50;3.58;;;;;;;8.62;60.55;103028.34;5067512;28;20193;-61
2022/01/28 03:09:36;;;;;;;13.88;2.92;;;;;;;8.59;60.48;103029.28;5050706;28;20064;-62
2022/01/28 03:12:14;;;;;;;8.90;2.58;;;;;;;8.57;60.45;103022.22;5051213;28;20033;-61
2022/01/28 03:18:06;;;;;;;9.20;2.17;;;;;;;8.55;60.49;103024.06;5068123;28;20052;-62
2022/01/28 03:23:04;;;;;;;9.75;2.28;;;;;;;8.49;60.41;103011.72;5057737;28;20140;-62
2022/01/28 03:25:35;;;;;;;14.52;2.78;;;;;;;8.46;60.50;103009.13;5030819;28;20065;-62
2022/01/28 03:28:02;;;;;;;10.65;2.35;;;;;;;8.45;60.56;103014.53;5030693;28;20045;-61
2022/01/28 03:30:28;;;;;;;12.93;3.08;;;;;;;8.44;60.40;103028.84;5029524;28;20443;-62
2022/01/28 03:32:55;;;;;;;13.85;3.72;;;;;;;8.42;60.70;103034.25;5030966;28;20087;-61
2022/01/28 03:35:31;;;;;;;15.07;2.72;;;;;;;8.40;60.43;103028.06;5031156;28;20056;-61
2022/01/28 03:38:02;;;;;;;10.27;2.50;;;;;;;8.39;60.65;103033.44;5030762;28;20092;-61
2022/01/28 03:40:33;;;;;;;10.93;3.10;;;;;;;8.39;60.74;103028.97;5041454;28;20047;-60
2022/01/28 03:45:29;;;;;;;14.00;2.28;;;;;;;8.40;60.85;103027.16;5050720;28;20128;-61
2022/01/28 03:47:56;;;;;;;11.55;2.08;;;;;;;8.40;60.81;103021.81;5060243;28;20040;-62
2022/01/28 03:50:23;;;;;;;7.10;2.53;;;;;;;8.40;60.90;103021.81;5069665;28;20065;-61
2022/01/28 03:52:50;;;;;;;18.42;3.17;;;;;;;8.37;60.78;103017.41;5070817;28;20055;-62
2022/01/28 03:55:16;;;;;;;8.90;2.22;;;;;;;8.37;60.87;103020.09;5069467;28;20098;-61
2022/01/28 03:57:43;;;;;;;13.95;2.42;;;;;;;8.36;60.81;103015.66;5053091;28;20045;-61
2022/01/28 04:00:10;;;;;;;11.20;2.38;;;;;;;8.37;60.73;103024.56;5050697;28;20041;-61
2022/01/28 04:02:41;;;;;;;10.50;2.50;;;;;;;8.37;60.85;103030.81;5049373;28;20052;-61
2022/01/28 04:13:26;;;;;;;11.63;2.20;;;;;;;8.38;60.94;103050.44;5051692;28;20041;-61
2022/01/28 04:18:25;;;;;;;9.25;2.05;;;;;;;8.38;60.96;103055.78;5082431;28;20403;-61
2022/01/28 04:20:52;;;;;;;12.00;2.50;;;;;;;8.37;60.81;103056.72;5050676;28;20140;-61
2022/01/28 04:23:20;;;;;;;9.93;2.92;;;;;;;8.36;60.83;103062.97;5050748;28;20106;-61
2022/01/28 04:25:47;;;;;;;13.18;2.55;;;;;;;8.35;60.86;103055.88;5053399;28;20128;-61
2022/01/28 04:28:13;;;;;;;10.02;1.98;;;;;;;8.33;60.84;103050.56;5054033;28;20141;-61
2022/01/28 04:30:40;;;;;;;13.80;2.92;;;;;;;8.32;60.88;103056.78;5053932;28;20124;-61
2022/01/28 04:33:13;;;;;;;9.82;2.20;;;;;;;8.32;60.98;103062.16;5053977;28;20179;-62
2022/01/28 04:35:40;;;;;;;13.80;2.60;;;;;;;8.33;60.91;103071.06;5053744;28;20045;-61
2022/01/28 04:38:25;;;;;;;15.05;3.28;;;;;;;8.33;60.76;103077.31;5053547;28;20067;-62
2022/01/28 04:43:30;;;;;;;11.40;2.55;;;;;;;8.32;60.80;103090.72;5073716;28;20125;-61
2022/01/28 04:46:07;;;;;;;15.40;3.13;;;;;;;8.29;60.77;103084.53;5066834;28;20041;-61
2022/01/28 04:48:42;;;;;;;10.80;2.42;;;;;;;8.30;60.85;103090.75;5053611;28;20052;-61
2022/01/28 04:51:23;;;;;;;12.65;1.98;;;;;;;8.28;61.02;103087.25;5053767;28;20442;-61
2022/01/28 04:54:13;;;;;;;17.73;2.65;;;;;;;8.27;60.81;103088.16;5053709;28;20064;-61
2022/01/28 05:00:03;;;;;;;11.27;2.40;;;;;;;8.21;60.60;103094.56;5053363;28;20519;-61
2022/01/28 05:02:40;;;;;;;11.63;2.25;;;;;;;8.16;60.48;103092.88;5050423;28;20045;-61
2022/01/28 05:07:35;;;;;;;16.45;3.50;;;;;;;8.10;60.91;103091.22;5053440;28;20057;-61
2022/01/28 05:26:51;;;;;;;11.60;2.35;;;;;;;7.97;61.00;103129.91;5053007;28;20048;-62
2022/01/28 05:29:17;;;;;;;14.20;2.13;;;;;;;7.95;61.10;103132.63;5051399;28;20124;-62
2022/01/28 05:31:44;;;;;;;8.98;2.95;;;;;;;7.95;61.18;103132.63;5052968;28;20032;-61
2022/01/28 05:34:11;;;;;;;12.18;2.60;;;;;;;7.95;61.08;103145.13;5061384;28;20106;-61
2022/01/28 05:36:37;;;;;;;14.88;2.17;;;;;;;7.92;61.12;103135.38;5071330;28;20048;-62
2022/01/28 05:39:04;;;;;;;9.63;2.67;;;;;;;7.92;61.09;103148.75;5072575;28;20051;-61
2022/01/28 05:41:32;;;;;;;15.57;2.67;;;;;;;7.92;61.15;103158.56;5072693;28;20513;-61
2022/01/28 05:44:00;;;;;;;15.52;2.70;;;;;;;7.91;61.19;103160.38;5072843;28;20375;-62
2022/01/28 05:46:28;;;;;;;11.40;2.38;;;;;;;7.93;61.17;103163.00;5072782;28;20056;-61
2022/01/28 05:48:56;;;;;;;13.35;2.55;;;;;;;7.94;61.04;103167.44;5056878;28;20098;-61
2022/01/28 05:51:24;;;;;;;8.25;1.90;;;;;;;7.92;61.06;103172.84;5052549;28;20041;-61
2022/01/28 05:53:53;;;;;;;12.18;2.20;;;;;;;7.90;61.01;103180.00;5052550;28;20036;-62
2022/01/28 05:56:20;;;;;;;8.48;2.47;;;;;;;7.88;60.93;103187.19;5059369;28;20044;-62
2022/01/28 05:58:47;;;;;;;8.45;2.17;;;;;;;7.86;60.94;103181.00;5072179;28;20433;-61
2022/01/28 06:01:13;;;;;;;10.30;2.42;;;;;;;7.86;60.91;103181.00;5058718;28;20060;-61
2022/01/28 06:03:44;;;;;;;8.68;1.88;;;;;;;7.84;60.88;103187.28;5057290;28;20036;-62
2022/01/28 06:06:18;;;;;;;10.20;1.90;;;;;;;7.84;60.79;103189.97;5072483;28;20075;-61
2022/01/28 06:08:49;;;;;;;6.43;2.22;;;;;;;7.83;60.92;103196.25;5072002;28;20110;-61
2022/01/28 06:11:16;;;;;;;13.85;2.38;;;;;;;7.82;60.93;103191.81;5069559;28;20052;-61
2022/01/28 06:13:47;;;;;;;10.85;2.30;;;;;;;7.79;60.57;103190.06;5035878;28;20038;-61
2022/01/28 06:16:15;;;;;;;8.70;2.72;;;;;;;7.79;60.79;103198.09;5032221;28;20065;-61
2022/01/28 06:18:43;;;;;;;15.80;2.05;;;;;;;7.77;60.77;103202.59;5031851;28;20045;-62
2022/01/28 06:21:10;;;;;;;7.07;2.10;;;;;;;7.74;60.85;103221.41;5057342;28;20131;-61
2022/01/28 06:23:37;;;;;;;11.73;2.40;;;;;;;7.72;60.74;103219.66;5051878;28;20589;-62
2022/01/28 06:26:04;;;;;;;9.25;2.42;;;;;;;7.65;60.61;103230.50;5052012;28;20037;-61
2022/01/28 06:28:31;;;;;;;14.50;2.03;;;;;;;7.59;60.49;103233.28;5031376;28;20132;-61
2022/01/28 06:30:58;;;;;;;8.75;2.17;;;;;;;7.54;60.58;103226.28;5049291;28;20037;-62
2022/01/28 06:33:29;;;;;;;10.07;2.17;;;;;;;7.48;60.58;103234.44;5043579;28;20468;-61
2022/01/28 06:35:55;;;;;;;13.63;2.22;;;;;;;7.44;60.55;103233.59;5040617;28;20120;-61
2022/01/28 06:38:22;;;;;;;9.60;2.33;;;;;;;7.39;60.62;103227.44;5031213;28;20195;-61
2022/01/28 06:40:50;;;;;;;10.23;2.75;;;;;;;7.36;60.75;103229.28;5047799;28;20040;-61
2022/01/28 06:43:18;;;;;;;11.82;1.77;;;;;;;7.32;60.61;103228.47;5037087;28;20034;-61
2022/01/28 06:45:45;;;;;;;10.35;2.55;;;;;;;7.28;60.65;103241.00;5031287;28;20087;-61
2022/01/28 06:48:12;;;;;;;9.95;1.90;;;;;;;7.26;60.66;103258.88;5039388;28;20094;-61
2022/01/28 06:50:42;;;;;;;6.35;2.38;;;;;;;7.24;60.76;103266.03;5048510;28;20068;-61
2022/01/28 06:53:11;;;;;;;7.22;2.22;;;;;;;7.21;60.70;103266.09;5032353;28;20052;-61
2022/01/28 06:55:39;;;;;;;11.77;2.90;;;;;;;7.19;60.86;103261.69;5050007;28;20047;-62
2022/01/28 06:58:07;;;;;;;4.28;1.95;;;;;;;7.18;60.87;103268.81;5037870;28;20094;-61
2022/01/28 07:00:37;;;;;;;8.50;2.40;;;;;;;7.18;60.90;103284.84;5048496;28;20063;-61
2022/01/28 07:03:08;;;;;;;6.93;1.90;;;;;;;7.16;60.95;103284.00;5038536;28;20060;-62
2022/01/28 07:05:36;;;;;;;11.32;2.22;;;;;;;7.13;60.85;103289.41;5050561;28;20131;-61
2022/01/28 07:08:04;;;;;;;11.93;2.40;;;;;;;7.11;60.96;103295.69;5030563;28;20072;-61
2022/01/28 07:10:31;;;;;;;12.18;2.45;;;;;;;7.10;61.02;103294.81;5041112;28;20045;-61
2022/01/28 07:13:01;;;;;;;7.32;2.00;;;;;;;7.09;60.99;103295.72;5050407;28;20036;-62
2022/01/28 07:15:28;;;;;;;8.32;2.13;;;;;;;7.09;60.97;103300.19;5051009;28;20123;-61
2022/01/28 07:18:03;;;;;;;8.65;1.90;;;;;;;7.09;60.97;103305.53;5050188;28;20047;-61
2022/01/28 07:20:31;;;;;;;9.88;2.55;;;;;;;7.09;60.97;103305.53;5050856;28;20123;-61
2022/01/28 07:23:02;;;;;;;16.30;1.92;;;;;;;7.09;60.91;103313.53;5049207;28;20513;-62
2022/01/28 07:25:29;;;;;;;12.23;2.83;;;;;;;7.09;61.01;103311.75;5050288;28;20151;-60
2022/01/28 07:27:56;;;;;;;11.82;3.00;;;;;;;7.10;60.98;103312.63;5049956;28;20484;-61
2022/01/28 07:34:16;;;;;;;7.15;2.55;;;;;;;7.05;60.88;103318.06;4941430;23;20113;-61
2022/01/28 07:36:42;;;;;;;14.43;2.80;;;;;;;7.03;60.93;103327.00;4913697;29;20036;-61
2022/01/28 07:39:09;;;;;;;7.57;2.55;;;;;;;7.00;61.05;103326.16;4909714;28;20389;-62
2022/01/28 07:41:37;;;;;;;8.63;2.88;;;;;;;6.99;61.17;103326.16;4913057;29;20071;-61
2022/01/28 07:44:08;;;;;;;16.30;2.85;;;;;;;6.98;60.71;103319.94;4914213;29;20044;-61
2022/01/28 07:46:35;;;;;;;9.20;2.30;;;;;;;6.98;61.09;103330.63;4928825;29;20036;-60
2022/01/28 07:49:02;;;;;;;14.68;3.20;;;;;;;6.98;61.07;103335.09;4913991;29;20066;-61
2022/01/28 07:51:29;;;;;;;10.48;2.50;;;;;;;6.98;61.07;103337.75;4913943;29;20040;-62
2022/01/28 07:53:56;;;;;;;8.00;2.20;;;;;;;6.95;61.03;103344.03;4913978;29;20044;-61
2022/01/28 07:56:24;;;;;;;6.18;2.25;;;;;;;6.93;61.15;103340.50;4914234;29;20167;-61
2022/01/28 07:58:51;;;;;;;8.80;2.50;;;;;;;6.94;61.14;103336.94;4928347;29;20052;-62
2022/01/28 08:01:18;;;;;;;11.13;2.08;;;;;;;6.96;61.11;103350.25;4915884;29;20048;-60
2022/01/28 08:03:45;;;;;;;6.93;2.08;;;;;;;6.96;61.23;103351.16;4917396;29;20051;-60
2022/01/28 08:06:11;;;;;;;9.27;2.38;;;;;;;6.97;61.17;103358.25;4917225;29;20055;-61
2022/01/28 08:08:38;;;;;;;7.80;1.98;;;;;;;7.00;61.12;103358.19;4917115;29;20490;-61
2022/01/28 08:11:05;;;;;;;11.45;2.10;;;;;;;7.01;61.20;103356.41;4917203;29;20048;-61
2022/01/28 08:13:31;;;;;;;9.93;2.38;;;;;;;7.00;61.10;103358.19;4917421;29;20086;-61
2022/01/28 08:15:58;;;;;;;9.05;2.47;;;;;;;7.01;61.15;103365.31;4916024;29;20127;-60
2022/01/28 08:18:25;;;;;;;10.27;2.30;;;;;;;7.02;60.99;103363.53;4917315;29;20045;-62
2022/01/28 08:20:52;;;;;;;9.00;2.55;;;;;;;7.02;61.14;103368.88;4917125;29;20076;-61
2022/01/28 08:23:19;;;;;;;10.52;2.25;;;;;;;7.02;61.12;103368.88;4917071;29;20048;-60
2022/01/28 08:25:46;;;;;;;6.13;2.42;;;;;;;7.04;61.18;103363.50;4931660;29;20127;-62
2022/01/28 08:28:13;;;;;;;14.25;3.22;;;;;;;7.05;61.20;103379.50;4931467;29;20087;-61
2022/01/28 08:30:40;;;;;;;9.52;2.90;;;;;;;7.08;61.23;103387.47;4916881;29;20512;-62
2022/01/28 08:33:07;;;;;;;8.30;2.35;;;;;;;7.09;61.15;103383.88;4916754;29;20048;-61
2022/01/28 08:35:39;;;;;;;12.30;3.70;;;;;;;7.09;61.17;103389.25;4915535;29;20136;-61
2022/01/28 08:38:24;;;;;;;11.95;3.08;;;;;;;7.06;61.32;103386.63;4916628;29;20067;-61
2022/01/28 08:40:53;;;;;;;11.82;2.78;;;;;;;7.04;61.27;103387.53;4916679;29;20075;-62
2022/01/28 08:43:20;;;;;;;10.25;3.33;;;;;;;7.04;61.33;103387.53;4916696;29;20573;-63
2022/01/28 08:45:47;;;;;;;6.68;2.78;;;;;;;7.04;61.44;103391.09;4915919;29;20044;-62
2022/01/28 08:48:14;;;;;;;11.88;3.25;;;;;;;7.09;61.43;103378.56;4916028;29;20138;-64
2022/01/28 08:50:41;;;;;;;12.73;3.65;;;;;;;7.14;61.73;103389.16;4912696;29;20056;-63
2022/01/28 08:53:08;;;;;;;12.93;4.50;;;;;;;7.20;61.83;103387.28;4897639;29;20585;-65
2022/01/28 08:55:37;;;;;;;10.68;3.30;;;;;;;7.26;61.67;103391.63;4898082;29;20107;-64
2022/01/28 08:58:05;;;;;;;14.13;3.97;;;;;;;7.33;61.89;103393.28;4897823;29;20124;-63
2022/01/28 09:00:33;;;;;;;9.45;2.90;;;;;;;7.40;61.82;103386.94;4897772;29;20392;-64
2022/01/28 09:03:09;;;;;;;8.35;2.60;;;;;;;7.48;62.00;103376.13;4909155;29;20056;-63
2022/01/28 09:05:36;;;;;;;7.53;2.92;;;;;;;7.57;62.09;103370.63;4916345;29;20044;-64
2022/01/28 09:08:07;;;;;;;12.52;4.10;;;;;;;7.66;62.41;103381.16;4916574;29;20486;-64
2022/01/28 09:10:42;;;;;;;13.18;3.38;;;;;;;7.82;62.67;103387.09;4916027;28;20060;-64
2022/01/28 09:13:21;;;;;;;9.70;3.22;;;;;;;8.01;63.05;103384.94;4916280;29;20059;-63
2022/01/28 09:15:48;;;;;;;15.63;3.25;;;;;;;8.26;63.14;103380.88;4931040;29;20048;-64
2022/01/28 09:18:16;;;;;;;7.25;2.97;;;;;;;8.49;63.21;103400.03;4916456;29;20036;-65
2022/01/28 09:20:43;;;;;;;12.02;3.70;;;;;;;8.71;63.09;103400.44;4916327;29;20390;-64
2022/01/28 09:23:09;;;;;;;14.85;3.88;;;;;;;8.95;63.09;103396.34;4916014;28;20607;-64
2022/01/28 09:25:36;;;;;;;9.32;3.83;;;;;;;9.20;63.28;103388.59;4916132;29;20123;-65
2022/01/28 09:28:03;;;;;;;10.57;3.00;;;;;;;9.43;63.22;103393.38;4915676;29;20128;-64
2022/01/28 09:30:30;;;;;;;10.00;3.33;;;;;;;9.62;62.99;103404.50;4914893;29;20048;-66
2022/01/28 09:32:58;;;;;;;10.45;3.25;;;;;;;9.78;62.66;103398.72;4915838;29;20079;-65
2022/01/28 09:35:25;;;;;;;7.60;3.53;;;;;;;9.92;62.65;103406.38;4915807;29;20505;-65
2022/01/28 09:37:53;;;;;;;10.20;3.80;;;;;;;10.01;62.30;103411.50;4930139;29;20111;-64
2022/01/28 09:40:20;;;;;;;14.73;3.70;;;;;;;10.10;62.03;103407.69;4915765;29;20123;-64
2022/01/28 09:42:48;;;;;;;10.30;3.20;;;;;;;10.15;61.98;103416.47;4914434;29;20048;-66
2022/01/28 09:45:19;;;;;;;9.00;3.08;;;;;;;10.21;61.73;103418.16;4916002;29;20036;-65
2022/01/28 09:47:46;;;;;;;10.32;3.35;;;;;;;10.24;61.37;103429.69;4914718;29;20412;-66
2022/01/28 09:50:14;;;;;;;11.00;3.40;;;;;;;10.26;61.47;103429.63;4914131;29;20056;-65
2022/01/28 09:52:41;;;;;;;16.73;4.13;;;;;;;10.27;61.24;103431.41;4914653;29;20044;-66
2022/01/28 09:55:08;;;;;;;10.98;3.65;;;;;;;10.30;61.18;103437.56;4915658;29;20091;-66
2022/01/28 09:57:35;;;;;;;13.02;3.78;;;;;;;10.37;61.35;103440.97;4915478;29;20124;-66
2022/01/28 10:00:05;;;;;;;9.73;3.33;;;;;;;10.47;61.53;103439.78;4915555;29;20516;-65
2022/01/28 10:02:57;;;;;;;15.40;4.47;;;;;;;10.60;61.51;103438.50;4914212;29;20390;-65
2022/01/28 10:05:41;;;;;;;10.38;3.63;;;;;;;10.76;61.70;103436.22;4915836;29;20044;-65
2022/01/28 10:08:09;;;;;;;16.00;4.85;;;;;;;10.91;61.44;103433.06;4915216;29;20442;-66
2022/01/28 10:10:56;;;;;;;12.40;3.08;;;;;;;11.05;61.27;103435.31;4930276;29;20131;-65
2022/01/28 10:13:27;;;;;;;10.18;3.45;;;;;;;11.14;61.35;103440.41;4930035;29;20040;-65
2022/01/28 10:16:01;;;;;;;11.40;3.50;;;;;;;11.19;61.07;103435.78;4929846;29;20076;-66
2022/01/28 10:18:45;;;;;;;21.90;4.55;;;;;;;11.27;60.69;103439.09;4915213;29;20063;-65
2022/01/28 10:21:16;;;;;;;12.30;3.33;;;;;;;11.35;60.79;103433.47;4915225;29;20127;-66
2022/01/28 10:24:03;;;;;;;10.10;3.63;;;;;;;11.43;60.49;103434.97;4913187;29;20044;-65
2022/01/28 10:26:39;;;;;;;13.63;3.33;;;;;;;11.54;60.59;103442.69;4915403;29;20048;-66
2022/01/28 10:29:10;;;;;;;13.35;3.60;;;;;;;11.63;60.57;103437.00;4913703;29;20110;-66
2022/01/28 10:32:04;;;;;;;12.85;3.83;;;;;;;11.71;59.98;103445.69;4914017;29;20126;-65
2022/01/28 10:34:37;;;;;;;14.27;3.22;;;;;;;11.81;60.18;103437.31;4917805;28;20064;-65
2022/01/28 10:37:14;;;;;;;10.05;3.33;;;;;;;11.90;59.92;103432.53;4929502;29;20048;-66
2022/01/28 10:39:49;;;;;;;10.48;3.40;;;;;;;12.01;59.87;103426.75;4914709;29;20055;-66
2022/01/28 10:42:40;;;;;;;14.35;3.25;;;;;;;12.11;59.71;103435.38;4914736;29;20512;-66
2022/01/28 10:45:16;;;;;;;12.57;3.05;;;;;;;12.20;59.49;103435.03;4915011;29;20119;-66
2022/01/28 10:47:49;;;;;;;8.85;2.60;;;;;;;12.28;59.36;103446.41;4913542;29;20048;-65
2022/01/28 10:50:30;;;;;;;11.05;3.25;;;;;;;12.32;58.91;103438.16;4913776;29;20058;-65
2022/01/28 10:53:07;;;;;;;11.68;3.35;;;;;;;12.43;58.69;103434.19;4913769;29;20052;-66
2022/01/28 10:55:36;;;;;;;9.90;3.25;;;;;;;12.51;58.85;103440.16;4915505;29;20048;-65
2022/01/28 10:58:05;;;;;;;10.90;3.13;;;;;;;12.58;58.67;103430.91;4914621;29;20123;-65
2022/01/28 11:00:37;;;;;;;9.73;2.67;;;;;;;12.65;58.39;103424.38;4914805;29;20048;-66
2022/01/28 11:03:06;;;;;;;18.02;7.90;;;;;;;12.76;58.34;103421.25;4913493;29;20058;-65
2022/01/28 11:05:35;;;;;;;8.93;3.25;;;;;;;12.87;58.38;103424.41;4924780;29;20040;-65
2022/01/28 11:08:06;;;;;;;7.97;2.67;;;;;;;13.00;58.05;103418.44;4907918;29;20036;-65
2022/01/28 11:10:34;;;;;;;12.98;3.05;;;;;;;13.10;57.94;103410.84;4914925;29;20059;-64
2022/01/28 11:13:01;;;;;;;11.90;2.65;;;;;;;13.19;57.74;103423.13;4914843;29;20044;-64
2022/01/28 11:15:29;;;;;;;11.00;2.78;;;;;;;13.29;57.72;103414.59;4939483;28;20073;-65
2022/01/28 11:17:59;;;;;;;13.68;2.65;;;;;;;13.42;57.50;103416.81;4976695;28;20395;-66
2022/01/28 11:20:36;;;;;;;14.10;3.30;;;;;;;13.56;57.45;103409.00;4994162;28;20046;-65
2022/01/28 11:23:21;;;;;;;14.35;3.58;;;;;;;13.67;56.83;103398.59;5004921;28;20053;-64
2022/01/28 11:26:07;;;;;;;7.93;2.70;;;;;;;13.74;56.62;103392.00;4916683;28;20401;-65
2022/01/28 11:28:55;;;;;;;13.63;2.90;;;;;;;13.80;56.49;103386.31;4918299;29;20063;-64
2022/01/28 11:31:48;;;;;;;11.82;2.67;;;;;;;13.87;56.03;103389.63;4915006;29;20048;-64
2022/01/28 11:34:28;;;;;;;11.73;2.75;;;;;;;13.94;56.35;103378.47;4916090;28;20040;-65
2022/01/28 11:36:58;;;;;;;10.77;3.05;;;;;;;14.05;56.35;103390.63;4917828;29;20432;-64
2022/01/28 11:39:37;;;;;;;8.38;2.60;;;;;;;14.13;55.88;103373.16;4917584;29;20048;-65
2022/01/28 11:42:08;;;;;;;17.17;3.70;;;;;;;14.24;56.02;103364.53;4917679;29;20115;-64
2022/01/28 11:44:56;;;;;;;15.57;3.10;;;;;;;14.32;55.40;103365.06;4918042;29;20044;-64
2022/01/28 11:47:24;;;;;;;7.93;2.42;;;;;;;14.39;55.81;103362.94;4932168;29;20064;-65
2022/01/28 11:49:55;;;;;;;11.25;2.80;;;;;;;14.47;55.56;103366.19;4917439;29;20476;-64
2022/01/28 11:52:27;;;;;;;9.07;2.55;;;;;;;14.54;54.92;103364.94;4917690;29;20047;-65
2022/01/28 11:54:55;;;;;;;7.47;2.50;;;;;;;14.59;55.08;103360.19;4916316;29;20055;-72
2022/01/28 11:57:26;;;;;;;13.27;2.80;;;;;;;14.67;54.70;103368.81;4916231;29;20056;-64
2022/01/28 12:00:22;;;;;;;11.68;2.65;;;;;;;14.71;54.80;103351.50;4917262;29;20040;-64
2022/01/28 12:02:52;;;;;;;9.93;3.03;;;;;;;14.77;54.68;103353.91;4917822;29;20044;-64
2022/01/28 12:05:30;;;;;;;13.30;3.38;;;;;;;14.79;54.10;103361.94;4917448;29;20053;-64
2022/01/28 12:08:00;;;;;;;7.18;2.45;;;;;;;14.81;54.25;103360.91;4917140;29;20052;-65
2022/01/28 12:10:30;;;;;;;7.70;2.35;;;;;;;14.80;53.88;103363.69;4917177;29;20387;-64
2022/01/28 12:13:03;;;;;;;14.25;2.70;;;;;;;14.74;53.44;103370.28;4917113;29;20059;-64
2022/01/28 12:15:57;;;;;;;11.13;2.60;;;;;;;14.67;53.07;103363.41;4931819;29;20040;-64
2022/01/28 12:18:24;;;;;;;9.20;2.28;;;;;;;14.59;53.10;103358.38;4917114;29;20103;-65
2022/01/28 12:20:53;;;;;;;11.30;2.38;;;;;;;14.56;53.02;103349.53;4917138;29;20134;-64
2022/01/28 12:23:25;;;;;;;13.48;2.40;;;;;;;14.52;52.79;103362.31;4917134;29;20494;-64
2022/01/28 12:25:57;;;;;;;8.50;2.33;;;;;;;14.54;52.81;103346.91;4915991;29;20106;-64
2022/01/28 12:28:32;;;;;;;10.57;3.00;;;;;;;14.62;53.12;103338.41;4916909;29;20096;-65
2022/01/28 12:31:13;;;;;;;11.45;2.17;;;;;;;14.70;52.83;103329.94;4916872;29;20051;-65
2022/01/28 12:33:44;;;;;;;12.55;2.28;;;;;;;14.75;52.83;103330.56;4915892;28;20064;-65
2022/01/28 12:36:14;;;;;;;9.27;2.65;;;;;;;14.80;52.54;103325.81;4916697;29;20055;-64
2022/01/28 12:38:44;;;;;;;12.88;2.92;;;;;;;14.84;52.20;103322.00;4914029;29;20062;-64
2022/01/28 12:41:16;;;;;;;8.55;2.20;;;;;;;14.91;52.32;103318.06;4915585;29;20052;-65
2022/01/28 12:43:42;;;;;;;7.18;1.50;;;;;;;14.99;52.40;103310.44;4931496;29;20044;-64
2022/01/28 12:46:11;;;;;;;8.13;2.30;;;;;;;15.07;51.99;103313.63;4915461;29;20043;-65
2022/01/28 12:48:50;;;;;;;5.53;1.70;;;;;;;15.16;51.92;103305.03;4914719;29;20490;-64
2022/01/28 12:51:20;;;;;;;7.47;1.92;;;;;;;15.25;51.98;103298.28;4916047;29;20051;-65
2022/01/28 12:53:54;;;;;;;8.45;2.20;;;;;;;15.31;51.88;103306.09;4912480;29;20040;-64
2022/01/28 12:56:33;;;;;;;11.43;2.35;;;;;;;15.26;51.78;103294.63;4914929;29;20044;-64
2022/01/28 12:59:01;;;;;;;6.38;2.10;;;;;;;15.17;51.48;103289.69;4997216;28;20147;-65
2022/01/28 13:01:28;;;;;;;8.90;1.92;;;;;;;15.02;51.30;103294.06;4997904;28;20114;-65
2022/01/28 13:04:07;;;;;;;6.63;1.80;;;;;;;14.87;51.24;103305.66;4915855;29;20040;-65